Anna, Ohio
Current Conditions -  °F | °C
As of 1:13 PM on Sunday 23 Nov 2014 (Local Time) from KAXV Reporting Station
Scattered Clouds Scattered Clouds  
Wind Chill: 59°   Ceiling: Unl
Heat Index: 59°   Visibility: 10mi
Dew Point: 45°   Wind: 12mph
Humidity: 59%   Direction: 150°SSE
Pressure: 29.77"   Gusts: NA
Location:  40.39°N, 84.17°W
Report Text: KAXV 231813Z AUTO 15010KT 10SM SCT031 15/07 A2977 RMK AO2
Loading
Personal Weather Stations






























Interactive Weather Map New forecast layout! Learn more

10-Day Weather Forecast

Advertisements
Track Severe Weather on mobile